Airfield :
LOGIN :

Register | Disclaimer

   EN    FR    IT 

 










Legend :    VFR   Marginal VFR   IFR   Intensive IFR   Very Intensive IFR
Visi :
Ceiling :
>= 8 km
>= 3000ft
5 to 8 km
1000 to 3000 ft
1500m to 5 km
500 to 1000 ft
800 to 1500m
200 to 500 ft
< 800m
< 200 ft
Symbols :   Thunderstorms  Fog  Heavy snow  Heavy precipitations  Wind > 20 kt
SIGMETs :     Misc.  Thunderstorms  Icing  Turbulence  Mountain Waves  Volcanic Ashes






- Airport Elevation : 49 ft
- IATA code : AOI


LIPY - Ancona Falconara

CURRENT METAR :
  • 101150Z AUTO 14008KT 070V170 9999 SCT079/// 18/01 Q1023

EXPIRED METARs :
  • 101120Z AUTO 13006KT 090V190 9999 BKN079/// 17/00 Q1023
  • 101050Z AUTO 04006KT 010V070 9999 BKN077/// 17/03 Q1023
  • 100950Z AUTO 02007KT 330V050 9999 FEW068/// BKN083/// 15/04 Q1024
  • 100920Z AUTO VRB03KT 9999 SCT069/// BKN083/// 16/M01 Q1024

TAF TAF LIPY
Valid from the 10 at 12:00 until the 11 at 12:00 UTC


101100Z 1012/1112 14010KT 9999 SCT040
BECMG 1016/1018 VRB05KT
TEMPO 1022/1101 RA BKN014
TEMPO 1107/1110 RA BKN014



MET'MAP, your aeronautical weather chart ! - Copyright ORBIFLY December 2007 - Disclaimer

ORBIFLY MET'MAP TEAM :

Programming & Development : Alexandra Zaïnal
Concept & original design : Baudouin d'Aumeries
Assistance for programming : Marc-Olivier Méhu
Technical & hardware support : Manuel Goepfert

Contact : metmap@orbifly.com




SOURCES & CREDITS :

   NOAA